createdAt,value
2023-01-22T00:01:19.101Z,48.53
2023-01-22T00:03:49.426Z,44.58
2023-01-22T00:06:19.375Z,46.13
2023-01-22T00:08:48.579Z,38.75
2023-01-22T00:11:18.193Z,38.67
2023-01-22T00:13:46.491Z,37.80
2023-01-22T00:16:16.332Z,38.63
2023-01-22T00:18:45.068Z,43.92
2023-01-22T00:21:13.683Z,40.25
2023-01-22T00:23:43.145Z,34.53
2023-01-22T00:26:15.502Z,36.45
2023-01-22T00:28:45.360Z,37.05
2023-01-22T00:31:15.315Z,41.88
2023-01-22T00:33:43.922Z,39.10
2023-01-22T00:36:14.396Z,44.63
2023-01-22T00:38:43.843Z,38.90
2023-01-22T00:41:12.208Z,41.10
2023-01-22T00:43:40.849Z,43.88
2023-01-22T00:46:10.718Z,38.65
2023-01-22T00:48:39.408Z,37.22
2023-01-22T00:51:08.871Z,38.38
2023-01-22T00:53:37.413Z,38.42
2023-01-22T00:56:08.333Z,43.28
2023-01-22T00:58:36.395Z,48.13
2023-01-22T01:01:05.013Z,47.58
2023-01-22T01:03:33.545Z,46.63
2023-01-22T01:06:04.174Z,45.47
2023-01-22T01:08:36.609Z,45.80
2023-01-22T01:11:08.223Z,44.10
2023-01-22T01:13:38.707Z,43.45
2023-01-22T01:16:09.223Z,43.95
2023-01-22T01:18:37.811Z,43.90
2023-01-22T01:21:07.585Z,49.95
2023-01-22T01:23:36.715Z,47.45
2023-01-22T01:26:08.948Z,41.50
2023-01-22T01:28:37.607Z,36.85
2023-01-22T01:31:07.453Z,34.40
2023-01-22T01:33:35.868Z,36.15
2023-01-22T01:36:05.878Z,39.28
2023-01-22T01:38:34.509Z,34.75
2023-01-22T01:41:02.558Z,36.75
2023-01-22T01:43:32.754Z,32.55
2023-01-22T01:46:02.373Z,31.95
2023-01-22T01:48:33.337Z,32.03
2023-01-22T01:51:08.087Z,36.92
2023-01-22T01:53:37.627Z,36.83
2023-01-22T01:56:13.539Z,35.05
2023-01-22T01:58:45.941Z,36.97
2023-01-22T02:01:17.169Z,35.53
2023-01-22T02:03:45.951Z,45.97
2023-01-22T02:06:15.791Z,40.13
2023-01-22T02:08:47.323Z,35.90
2023-01-22T02:11:16.354Z,32.20
2023-01-22T02:13:51.500Z,32.90
2023-01-22T02:16:20.013Z,31.67
2023-01-22T02:18:48.220Z,35.28
2023-01-22T02:21:31.633Z,35.40
2023-01-22T02:23:59.976Z,29.58
2023-01-22T02:26:28.288Z,34.30
2023-01-22T02:28:56.499Z,28.70
2023-01-22T02:31:24.674Z,27.90
2023-01-22T02:33:53.119Z,26.92
2023-01-22T02:36:21.730Z,32.80
2023-01-22T02:38:51.198Z,32.80
2023-01-22T02:41:19.493Z,31.63
2023-01-22T02:43:47.524Z,32.58
2023-01-22T02:46:15.844Z,32.22
2023-01-22T02:48:43.957Z,30.58
2023-01-22T02:51:12.075Z,34.70
2023-01-22T02:53:40.178Z,33.85
2023-01-22T02:56:11.825Z,32.78
2023-01-22T02:58:40.065Z,31.17
2023-01-22T03:01:19.167Z,30.17
2023-01-22T03:03:47.972Z,31.35
2023-01-22T03:06:21.720Z,28.65
2023-01-22T03:08:49.876Z,32.08
2023-01-22T03:11:19.685Z,32.97
2023-01-22T03:14:05.569Z,39.35
2023-01-22T03:16:51.511Z,35.65
2023-01-22T03:19:37.494Z,36.58
2023-01-22T03:22:05.983Z,37.80
2023-01-22T03:24:34.148Z,35.10
2023-01-22T03:27:04.482Z,38.35
2023-01-22T03:29:32.600Z,37.97
2023-01-22T03:32:00.814Z,41.00
2023-01-22T03:34:29.620Z,35.17
2023-01-22T03:36:57.921Z,39.17
2023-01-22T03:39:27.624Z,35.30
2023-01-22T03:41:55.922Z,33.67
2023-01-22T03:44:25.423Z,39.95
2023-01-22T03:46:54.179Z,38.10
2023-01-22T03:49:22.588Z,41.40
2023-01-22T03:51:50.768Z,33.80
2023-01-22T03:54:18.973Z,33.42
2023-01-22T03:56:47.109Z,39.28
2023-01-22T03:59:15.370Z,36.03
2023-01-22T04:01:44.833Z,33.88
2023-01-22T04:04:13.668Z,32.78
2023-01-22T04:06:41.818Z,32.42
2023-01-22T04:09:09.998Z,34.25
2023-01-22T04:11:38.115Z,38.35
2023-01-22T04:14:06.145Z,40.45
2023-01-22T04:16:34.277Z,41.50
2023-01-22T04:19:03.985Z,42.92
2023-01-22T04:21:32.088Z,37.25
2023-01-22T04:24:00.154Z,40.10
2023-01-22T04:26:28.179Z,35.80
2023-01-22T04:28:56.284Z,38.92
2023-01-22T04:31:24.527Z,35.28
2023-01-22T04:33:52.818Z,35.67
2023-01-22T04:36:22.329Z,36.10
2023-01-22T04:38:50.461Z,37.53
2023-01-22T04:41:18.616Z,36.00
2023-01-22T04:43:46.703Z,37.33
2023-01-22T04:46:14.782Z,36.70
2023-01-22T04:48:42.809Z,40.05
2023-01-22T04:51:11.114Z,40.25
2023-01-22T04:53:40.675Z,37.83
2023-01-22T04:56:11.750Z,41.95
2023-01-22T04:58:39.858Z,38.80
2023-01-22T05:01:08.052Z,39.25
2023-01-22T05:03:36.207Z,43.00
2023-01-22T05:06:04.844Z,37.80
2023-01-22T05:08:32.934Z,39.15
2023-01-22T05:11:03.771Z,38.35
2023-01-22T05:13:31.879Z,38.35
2023-01-22T05:16:00.097Z,43.45
2023-01-22T05:18:28.290Z,39.58
2023-01-22T05:20:56.489Z,43.00
2023-01-22T05:23:24.794Z,36.60
2023-01-22T05:25:52.884Z,34.72
2023-01-22T05:28:22.406Z,37.90
2023-01-22T05:30:50.987Z,41.05
2023-01-22T05:33:19.161Z,40.90
2023-01-22T05:35:47.250Z,43.20
2023-01-22T05:38:15.449Z,45.83
2023-01-22T05:40:43.617Z,47.22
2023-01-22T05:43:11.668Z,43.15
2023-01-22T05:45:41.198Z,41.72
2023-01-22T05:48:09.235Z,44.75
2023-01-22T05:50:37.574Z,42.45
2023-01-22T05:53:05.653Z,44.42
2023-01-22T05:55:33.872Z,42.38
2023-01-22T05:58:02.667Z,40.22
2023-01-22T06:00:31.554Z,40.58
2023-01-22T06:03:02.104Z,42.35
2023-01-22T06:05:30.270Z,47.65
2023-01-22T06:07:58.368Z,50.45
2023-01-22T06:10:26.434Z,56.70
2023-01-22T06:12:54.459Z,44.92
2023-01-22T06:15:22.456Z,45.58
2023-01-22T06:17:50.524Z,43.63
2023-01-22T06:20:20.416Z,49.28
2023-01-22T06:22:52.014Z,47.10
2023-01-22T06:25:20.132Z,44.83
2023-01-22T06:27:48.222Z,46.03
2023-01-22T06:30:16.843Z,50.00
2023-01-22T06:32:45.083Z,46.70
2023-01-22T06:35:13.171Z,52.15
2023-01-22T06:37:42.706Z,54.33
2023-01-22T06:40:12.607Z,52.78
2023-01-22T06:42:40.980Z,53.63
2023-01-22T06:45:10.297Z,46.50
2023-01-22T06:47:38.371Z,56.30
2023-01-22T06:50:07.057Z,51.92
2023-01-22T06:52:35.161Z,46.25
2023-01-22T06:55:05.028Z,49.58
2023-01-22T06:57:33.247Z,48.33
2023-01-22T07:00:01.320Z,49.28
2023-01-22T07:02:29.398Z,50.67
2023-01-22T07:04:57.514Z,54.10
2023-01-22T07:07:25.659Z,51.13
2023-01-22T07:09:53.756Z,54.17
2023-01-22T07:12:23.241Z,57.30
2023-01-22T07:14:51.256Z,60.58
2023-01-22T07:17:19.478Z,69.90
2023-01-22T07:19:47.553Z,76.40
2023-01-22T07:22:15.751Z,74.15
2023-01-22T07:24:43.819Z,56.08
2023-01-22T07:27:11.915Z,58.30
2023-01-22T07:29:41.379Z,55.38
2023-01-22T07:32:09.515Z,48.22
2023-01-22T07:34:38.523Z,46.42
2023-01-22T07:37:06.614Z,44.25
2023-01-22T07:39:34.723Z,44.50
2023-01-22T07:42:02.906Z,38.00
2023-01-22T07:44:31.048Z,41.00
2023-01-22T07:47:00.533Z,42.22
2023-01-22T07:49:28.638Z,47.35
2023-01-22T07:51:56.863Z,43.35
2023-01-22T07:54:24.972Z,39.72
2023-01-22T07:56:53.276Z,38.58
2023-01-22T07:59:21.573Z,34.55
2023-01-22T08:01:49.663Z,32.90
2023-01-22T08:04:19.201Z,39.80
2023-01-22T08:06:47.329Z,44.20
2023-01-22T08:09:16.667Z,40.00
2023-01-22T08:11:44.882Z,50.58
2023-01-22T08:14:13.283Z,39.92
2023-01-22T08:16:41.429Z,40.03
2023-01-22T08:19:10.441Z,43.67
2023-01-22T08:21:39.848Z,44.17
2023-01-22T08:24:10.422Z,62.45
2023-01-22T08:26:39.271Z,80.25
2023-01-22T08:29:07.761Z,60.78
2023-01-22T08:31:36.090Z,41.75
2023-01-22T08:34:04.491Z,43.58
2023-01-22T08:36:32.744Z,42.97
2023-01-22T08:39:02.345Z,35.85
2023-01-22T08:41:30.369Z,40.38
2023-01-22T08:43:58.480Z,40.63
2023-01-22T08:46:26.648Z,51.03
2023-01-22T08:48:54.724Z,46.28
2023-01-22T08:51:24.917Z,41.35
2023-01-22T08:53:53.132Z,34.80
2023-01-22T08:56:22.601Z,36.58
2023-01-22T08:58:51.369Z,34.42
2023-01-22T09:01:20.889Z,34.45
2023-01-22T09:03:49.867Z,34.65
2023-01-22T09:06:18.307Z,35.45
2023-01-22T09:08:46.492Z,34.35
2023-01-22T09:11:14.648Z,34.38
2023-01-22T09:13:44.116Z,30.85
2023-01-22T09:16:12.598Z,28.90
2023-01-22T09:18:43.680Z,26.45
2023-01-22T09:21:11.815Z,38.08
2023-01-22T09:23:40.103Z,23.83
2023-01-22T09:26:08.276Z,23.73
2023-01-22T09:28:36.344Z,26.42
2023-01-22T09:31:06.344Z,23.75
2023-01-22T09:33:34.492Z,23.80
2023-01-22T09:36:10.093Z,23.70
2023-01-22T09:38:38.575Z,23.15
2023-01-22T09:41:15.083Z,26.25
2023-01-22T09:43:50.694Z,24.63
2023-01-22T09:46:25.901Z,24.58
2023-01-22T09:48:58.552Z,24.10
2023-01-22T09:51:26.849Z,23.13
2023-01-22T09:53:58.242Z,23.73
2023-01-22T09:56:35.113Z,23.70
2023-01-22T09:59:06.014Z,21.70
2023-01-22T10:01:36.497Z,24.20
2023-01-22T10:04:22.945Z,23.58
2023-01-22T10:06:52.551Z,33.20
2023-01-22T10:09:22.188Z,29.23
2023-01-22T10:11:55.208Z,26.95
2023-01-22T10:14:27.143Z,25.30
2023-01-22T10:17:00.536Z,34.58
2023-01-22T10:19:36.316Z,30.17
2023-01-22T10:22:11.759Z,32.45
2023-01-22T10:24:42.370Z,34.70
2023-01-22T10:27:14.081Z,28.98
2023-01-22T10:29:42.461Z,25.70
2023-01-22T10:32:23.907Z,25.25
2023-01-22T10:35:03.781Z,26.67
2023-01-22T10:37:32.622Z,29.13
2023-01-22T10:40:01.380Z,27.55
2023-01-22T10:42:31.264Z,27.23
2023-01-22T10:45:12.481Z,29.83
2023-01-22T10:47:42.135Z,32.50
2023-01-22T10:50:15.239Z,33.78
2023-01-22T10:52:46.399Z,37.13
2023-01-22T10:55:23.695Z,29.73
2023-01-22T10:57:57.008Z,38.40
2023-01-22T11:00:39.727Z,30.83
2023-01-22T11:03:23.129Z,32.45
2023-01-22T11:05:56.245Z,32.90
2023-01-22T11:08:30.565Z,28.27
2023-01-22T11:11:03.295Z,32.72
2023-01-22T11:13:40.055Z,29.15
2023-01-22T11:16:16.375Z,27.60
2023-01-22T11:18:53.394Z,28.38
2023-01-22T11:21:26.977Z,31.50
2023-01-22T11:24:01.401Z,29.30
2023-01-22T11:26:40.548Z,23.27
2023-01-22T11:29:18.583Z,28.52
2023-01-22T11:32:01.905Z,23.38
2023-01-22T11:34:53.181Z,28.38
2023-01-22T11:37:31.595Z,25.42
2023-01-22T11:40:19.861Z,29.40
2023-01-22T11:43:03.693Z,26.80
2023-01-22T11:45:54.635Z,26.17
2023-01-22T11:48:41.034Z,23.65
2023-01-22T11:51:21.798Z,29.33
2023-01-22T11:54:07.483Z,30.85
2023-01-22T11:56:47.057Z,33.40
2023-01-22T11:59:26.233Z,27.25
2023-01-22T12:02:05.800Z,25.85
2023-01-22T12:04:49.594Z,24.73
2023-01-22T12:07:45.195Z,29.02
2023-01-22T12:10:51.687Z,25.45
2023-01-22T12:13:34.269Z,25.60
2023-01-22T12:16:12.287Z,37.00
2023-01-22T12:19:11.657Z,42.13
2023-01-22T12:21:53.596Z,34.58
2023-01-22T12:24:27.393Z,25.00
2023-01-22T12:27:02.529Z,27.17
2023-01-22T12:29:34.744Z,27.00
2023-01-22T12:32:12.072Z,25.15
2023-01-22T12:34:48.136Z,25.65
2023-01-22T12:37:19.859Z,26.45
2023-01-22T12:40:02.916Z,26.52
2023-01-22T12:42:39.052Z,25.08
2023-01-22T12:45:18.885Z,25.63
2023-01-22T12:47:55.452Z,33.75
2023-01-22T12:50:25.675Z,23.08
2023-01-22T12:53:01.235Z,23.30
2023-01-22T12:55:37.973Z,23.65
2023-01-22T12:58:06.574Z,22.88
2023-01-22T13:00:36.924Z,24.25
2023-01-22T13:03:30.849Z,20.70
2023-01-22T13:06:00.427Z,20.75
2023-01-22T13:08:37.665Z,23.13
2023-01-22T13:11:09.655Z,21.15
2023-01-22T13:13:45.042Z,28.98
2023-01-22T13:16:22.933Z,21.15
2023-01-22T13:18:53.000Z,22.42
2023-01-22T13:21:28.525Z,31.27
2023-01-22T13:24:00.993Z,29.52
2023-01-22T13:26:32.840Z,26.65
2023-01-22T13:29:02.626Z,27.45
2023-01-22T13:31:31.328Z,30.83
2023-01-22T13:34:05.159Z,34.40
2023-01-22T13:36:33.223Z,38.38
2023-01-22T13:39:01.474Z,43.10
2023-01-22T13:41:36.717Z,30.00
2023-01-22T13:44:06.397Z,40.95
2023-01-22T13:46:38.481Z,41.67
2023-01-22T13:49:13.472Z,43.30
2023-01-22T13:54:20.417Z,43.95
2023-01-22T13:56:50.484Z,44.05
2023-01-22T13:59:23.866Z,51.25
2023-01-22T14:01:52.381Z,46.40
2023-01-22T14:04:37.155Z,50.58
2023-01-22T14:07:06.050Z,44.10
2023-01-22T14:09:35.966Z,40.78
2023-01-22T14:12:17.191Z,38.08
2023-01-22T14:14:45.756Z,42.63
2023-01-22T14:17:30.046Z,47.88
2023-01-22T14:19:58.894Z,45.63
2023-01-22T14:22:27.401Z,42.63
2023-01-22T14:24:55.463Z,41.75
2023-01-22T14:27:28.624Z,44.97
2023-01-22T14:29:56.880Z,41.88
2023-01-22T14:32:24.958Z,32.08
2023-01-22T14:34:53.249Z,32.90
2023-01-22T14:37:21.720Z,40.53
2023-01-22T14:39:50.001Z,40.50
2023-01-22T14:42:18.084Z,41.70
2023-01-22T14:44:48.627Z,33.05
2023-01-22T14:47:17.647Z,35.80
2023-01-22T14:49:45.687Z,34.53
2023-01-22T14:52:13.892Z,35.85
2023-01-22T14:54:42.106Z,43.13
2023-01-22T14:57:10.189Z,63.38
2023-01-22T14:59:38.337Z,1817.10
2023-01-22T15:02:07.829Z,1354.45
2023-01-22T15:04:36.020Z,905.13
2023-01-22T15:07:04.103Z,341.73
2023-01-22T15:09:32.224Z,89.82
2023-01-22T15:12:00.364Z,227.60
2023-01-22T15:14:28.594Z,193.80
2023-01-22T15:16:56.663Z,239.68
2023-01-22T15:19:26.264Z,135.95
2023-01-22T15:21:54.382Z,153.80
2023-01-22T15:24:22.635Z,87.78
2023-01-22T15:26:51.355Z,72.85
2023-01-22T15:29:19.503Z,84.18
2023-01-22T15:31:47.611Z,76.18
2023-01-22T15:34:15.833Z,84.65
2023-01-22T15:36:45.538Z,69.28
2023-01-22T15:39:13.780Z,91.95
2023-01-22T15:41:42.153Z,86.57
2023-01-22T15:44:13.193Z,97.00
2023-01-22T15:46:42.704Z,78.60
2023-01-22T15:49:12.499Z,93.18
2023-01-22T15:51:41.593Z,86.85
2023-01-22T15:54:15.964Z,96.25
2023-01-22T15:56:44.730Z,187.48
2023-01-22T15:59:14.044Z,193.63
2023-01-22T16:01:42.450Z,160.07
2023-01-22T16:04:12.189Z,101.13
2023-01-22T16:06:40.427Z,105.88
2023-01-22T16:09:10.142Z,103.38
2023-01-22T16:11:38.440Z,173.32
2023-01-22T16:14:06.621Z,141.45
2023-01-22T16:16:36.789Z,142.30
2023-01-22T16:19:07.551Z,137.50
2023-01-22T16:21:36.514Z,122.47
2023-01-22T16:24:04.839Z,111.57
2023-01-22T16:26:36.033Z,144.70
2023-01-22T16:29:06.105Z,171.40
2023-01-22T16:31:35.675Z,199.85
2023-01-22T16:34:09.595Z,182.68
2023-01-22T16:36:38.077Z,180.35
2023-01-22T16:39:07.142Z,160.40
2023-01-22T16:41:37.956Z,158.68
2023-01-22T16:44:09.372Z,90.03
2023-01-22T16:46:41.092Z,77.03
2023-01-22T16:49:16.691Z,104.68
2023-01-22T16:51:46.722Z,125.45
2023-01-22T16:54:20.651Z,150.38
2023-01-22T16:56:50.888Z,102.57
2023-01-22T16:59:19.183Z,110.45
2023-01-22T17:01:47.756Z,116.40
2023-01-22T17:04:16.239Z,93.95
2023-01-22T17:06:46.001Z,105.28
2023-01-22T17:09:16.866Z,126.57
2023-01-22T17:11:47.083Z,180.80
2023-01-22T17:14:20.033Z,173.93
2023-01-22T17:16:49.082Z,228.55
2023-01-22T17:19:18.742Z,183.50
2023-01-22T17:21:47.355Z,182.98
2023-01-22T17:24:15.790Z,227.13
2023-01-22T17:26:43.936Z,169.10
2023-01-22T17:29:16.588Z,162.20
2023-01-22T17:31:47.881Z,197.65
2023-01-22T17:34:21.638Z,127.30
2023-01-22T17:36:52.408Z,127.30
2023-01-22T17:39:21.841Z,108.43
2023-01-22T17:41:50.981Z,141.77
2023-01-22T17:44:22.826Z,116.53
2023-01-22T17:47:05.902Z,88.90
2023-01-22T17:49:46.816Z,218.55
2023-01-22T17:55:48.703Z,291.30
2023-01-22T17:58:31.245Z,180.52
2023-01-22T18:01:10.783Z,136.57
2023-01-22T18:03:47.962Z,184.85
2023-01-22T18:06:16.915Z,152.57
2023-01-22T18:08:50.763Z,149.63
2023-01-22T18:11:30.694Z,197.13
2023-01-22T18:14:14.580Z,161.35
2023-01-22T18:16:47.493Z,197.27
2023-01-22T18:19:19.244Z,133.15
2023-01-22T18:21:48.935Z,136.25
2023-01-22T18:24:28.334Z,104.95
2023-01-22T18:26:58.825Z,158.25
2023-01-22T18:29:27.151Z,181.30
2023-01-22T18:31:55.420Z,151.02
2023-01-22T18:34:25.231Z,410.30
2023-01-22T18:36:53.431Z,198.65
2023-01-22T18:39:22.404Z,387.02
2023-01-22T18:41:50.538Z,307.70
2023-01-22T18:44:19.957Z,204.02
2023-01-22T18:46:51.791Z,154.98
2023-01-22T18:49:36.081Z,249.13
2023-01-22T18:52:11.597Z,190.90
2023-01-22T18:54:39.678Z,147.30
2023-01-22T18:57:07.804Z,196.30
2023-01-22T18:59:35.963Z,144.32
2023-01-22T19:02:04.100Z,260.45
2023-01-22T19:04:33.821Z,132.40
2023-01-22T19:07:01.981Z,129.88
2023-01-22T19:09:31.707Z,131.80
2023-01-22T19:11:59.892Z,214.27
2023-01-22T19:14:27.977Z,206.85
2023-01-22T19:16:56.185Z,142.63
2023-01-22T19:19:24.423Z,174.32
2023-01-22T19:21:55.803Z,193.90
2023-01-22T19:24:26.887Z,162.98
2023-01-22T19:26:55.516Z,318.95
2023-01-22T19:29:25.420Z,354.27
2023-01-22T19:31:56.974Z,542.97
2023-01-22T19:34:25.999Z,241.38
2023-01-22T19:36:57.387Z,253.13
2023-01-22T19:39:26.555Z,211.82
2023-01-22T19:41:55.328Z,204.65
2023-01-22T19:44:24.055Z,256.00
2023-01-22T19:46:52.313Z,382.02
2023-01-22T19:49:20.924Z,264.63
2023-01-22T19:51:49.054Z,388.70
2023-01-22T19:54:19.558Z,313.98
2023-01-22T19:56:47.594Z,401.58
2023-01-22T19:59:18.192Z,277.17
2023-01-22T20:01:47.489Z,289.33
2023-01-22T20:04:20.623Z,294.90
2023-01-22T20:06:51.007Z,270.02
2023-01-22T20:09:21.954Z,499.30
2023-01-22T20:11:53.570Z,557.78
2023-01-22T20:14:23.706Z,371.10
2023-01-22T20:16:52.406Z,515.63
2023-01-22T20:19:20.487Z,360.80
2023-01-22T20:21:49.336Z,717.80
2023-01-22T20:24:17.867Z,658.42
2023-01-22T20:26:47.536Z,837.55
2023-01-22T20:29:16.086Z,791.67
2023-01-22T20:31:44.466Z,773.55
2023-01-22T20:34:12.665Z,898.00
2023-01-22T20:36:40.839Z,758.25
2023-01-22T20:39:08.901Z,648.58
2023-01-22T20:41:36.985Z,606.08
2023-01-22T20:44:06.737Z,669.33
2023-01-22T20:46:37.591Z,832.05
2023-01-22T20:49:05.738Z,635.58
2023-01-22T20:51:33.983Z,536.65
2023-01-22T20:54:02.138Z,760.00
2023-01-22T20:56:32.875Z,769.53
2023-01-22T20:59:02.832Z,615.35
2023-01-22T21:01:32.816Z,695.70
2023-01-22T21:04:02.197Z,692.42
2023-01-22T21:06:32.279Z,504.70
2023-01-22T21:09:01.259Z,377.92
2023-01-22T21:11:31.230Z,481.52
2023-01-22T21:14:01.263Z,468.08
2023-01-22T21:16:32.745Z,673.70
2023-01-22T21:19:02.826Z,504.75
2023-01-22T21:21:32.332Z,687.55
2023-01-22T21:24:00.687Z,455.25
2023-01-22T21:26:30.729Z,487.23
2023-01-22T21:29:01.396Z,336.00
2023-01-22T21:31:31.393Z,452.67
2023-01-22T21:34:03.701Z,497.30
2023-01-22T21:36:34.660Z,516.08
2023-01-22T21:39:02.879Z,511.30
2023-01-22T21:41:31.412Z,426.27
2023-01-22T21:44:16.952Z,545.33
2023-01-22T21:46:47.415Z,469.33
2023-01-22T21:49:17.674Z,692.40
2023-01-22T21:51:47.833Z,572.40
2023-01-22T21:54:17.859Z,643.75
2023-01-22T21:56:46.081Z,398.55
2023-01-22T21:59:14.970Z,483.95
2023-01-22T22:01:45.101Z,895.15
2023-01-22T22:04:16.209Z,492.33
2023-01-22T22:06:44.384Z,780.63
2023-01-22T22:09:14.699Z,470.27
2023-01-22T22:11:43.151Z,801.25
2023-01-22T22:14:12.646Z,772.40
2023-01-22T22:16:40.957Z,519.58
2023-01-22T22:19:09.118Z,415.52
2023-01-22T22:21:38.627Z,447.65
2023-01-22T22:24:07.981Z,620.45
2023-01-22T22:26:36.796Z,539.65
2023-01-22T22:29:05.732Z,441.55
2023-01-22T22:31:33.846Z,316.55
2023-01-22T22:34:02.130Z,359.42
2023-01-22T22:36:31.803Z,323.75
2023-01-22T22:39:01.445Z,274.80
2023-01-22T22:41:31.615Z,289.65
2023-01-22T22:43:59.767Z,210.90
2023-01-22T22:46:30.800Z,216.45
2023-01-22T22:49:00.675Z,205.90
2023-01-22T22:51:31.296Z,228.52
2023-01-22T22:54:02.553Z,203.73
2023-01-22T22:56:31.222Z,186.18
2023-01-22T22:59:00.936Z,206.20
2023-01-22T23:01:30.351Z,194.27
2023-01-22T23:03:58.772Z,181.23
2023-01-22T23:06:29.552Z,186.48
2023-01-22T23:09:00.780Z,157.75
2023-01-22T23:11:33.178Z,143.23
2023-01-22T23:14:03.557Z,129.00
2023-01-22T23:16:34.296Z,120.07
2023-01-22T23:19:05.097Z,106.15
2023-01-22T23:21:35.237Z,95.80
2023-01-22T23:24:06.539Z,87.95
2023-01-22T23:26:35.094Z,84.65
2023-01-22T23:29:06.016Z,91.63
2023-01-22T23:31:36.139Z,89.25
2023-01-22T23:34:05.226Z,90.13
2023-01-22T23:36:35.095Z,93.68
2023-01-22T23:39:05.149Z,86.07
2023-01-22T23:41:33.851Z,100.13
2023-01-22T23:44:01.978Z,87.47
2023-01-22T23:46:30.988Z,93.82
2023-01-22T23:49:00.493Z,87.80
2023-01-22T23:51:29.133Z,80.47
2023-01-22T23:53:57.216Z,89.70
2023-01-22T23:56:31.594Z,83.60
2023-01-22T23:59:00.933Z,86.82
